Time;durP1;ratioP1;P1;durP2;ratioP2;P2;SDS_P1;SDS_P2;PMS_P1;PMS_P2;Temp;Humidity;BMP_temperature;BMP_pressure;BME280_temperature;BME280_humidity;BME280_pressure;Samples;Min_cycle;Max_cycle;Signal;HPM_P1;HPM_P2
2021/08/11 00:05:06;;;;;;;8.37;6.47;;;;;;;16.20;100.00;99299.16;10333869;28;20189;-75
2021/08/11 00:10:25;;;;;;;10.50;6.60;;;;;;;16.10;100.00;99305.75;10331172;28;20562;-77
2021/08/11 00:15:43;;;;;;;7.40;6.20;;;;;;;16.04;100.00;99296.34;10333821;28;20182;-76
2021/08/11 00:21:03;;;;;;;9.47;6.90;;;;;;;16.26;100.00;99302.22;10333202;28;20181;-75
2021/08/11 00:26:22;;;;;;;10.13;6.47;;;;;;;16.10;100.00;99297.44;10332402;28;20178;-76
2021/08/11 00:31:41;;;;;;;9.30;6.40;;;;;;;15.88;100.00;99289.19;10332963;28;20241;-76
2021/08/11 00:37:00;;;;;;;6.67;5.90;;;;;;;15.82;100.00;99291.72;10333161;28;20201;-76
2021/08/11 00:42:19;;;;;;;7.93;6.27;;;;;;;15.90;100.00;99297.88;10330755;28;20722;-76
2021/08/11 00:47:38;;;;;;;7.43;6.50;;;;;;;15.68;100.00;99308.63;10333117;28;20189;-75
2021/08/11 00:52:57;;;;;;;9.93;6.20;;;;;;;15.61;100.00;99303.25;10332774;28;20189;-75
2021/08/11 00:58:19;;;;;;;8.63;6.47;;;;;;;15.62;100.00;99304.03;10330733;28;20186;-76
2021/08/11 01:03:38;;;;;;;9.30;5.90;;;;;;;15.67;100.00;99304.31;10332977;28;20276;-76
2021/08/11 01:08:57;;;;;;;6.80;5.80;;;;;;;15.47;100.00;99302.72;10331325;28;20291;-75
2021/08/11 01:14:16;;;;;;;11.57;6.80;;;;;;;15.37;100.00;99301.75;10339671;28;20552;-76
2021/08/11 01:19:37;;;;;;;7.03;6.43;;;;;;;15.33;100.00;99311.34;10339113;28;20177;-76
2021/08/11 01:25:18;;;;;;;7.80;6.83;;;;;;;15.30;100.00;99312.22;10338184;28;20185;-75
2021/08/11 01:30:48;;;;;;;7.40;6.67;;;;;;;15.26;100.00;99311.47;10339576;28;20205;-75
2021/08/11 01:36:28;;;;;;;8.13;6.70;;;;;;;15.13;100.00;99306.94;10339606;28;20205;-76
2021/08/11 01:41:59;;;;;;;8.10;6.40;;;;;;;15.15;100.00;99308.06;10336561;28;20222;-76
2021/08/11 01:47:22;;;;;;;8.50;6.50;;;;;;;15.08;100.00;99310.97;10339348;28;20181;-75
2021/08/11 01:52:44;;;;;;;8.30;6.83;;;;;;;15.06;100.00;99302.34;10338954;28;20181;-76
2021/08/11 01:58:03;;;;;;;7.90;6.73;;;;;;;14.83;100.00;99312.63;10336739;28;20182;-76
2021/08/11 02:03:24;;;;;;;13.00;7.70;;;;;;;14.72;100.00;99310.06;10337521;28;20181;-76
2021/08/11 02:08:44;;;;;;;13.30;8.07;;;;;;;14.69;100.00;99302.56;10337018;28;20319;-77
2021/08/11 02:14:05;;;;;;;8.90;6.50;;;;;;;14.67;100.00;99315.28;10336908;28;20189;-76
2021/08/11 02:19:23;;;;;;;6.70;6.00;;;;;;;14.66;100.00;99302.63;10338070;28;20568;-75
2021/08/11 02:24:43;;;;;;;8.80;6.50;;;;;;;14.72;100.00;99295.41;10336473;28;20185;-76
2021/08/11 02:30:13;;;;;;;7.30;6.60;;;;;;;14.77;100.00;99303.25;10337304;28;20205;-76
2021/08/11 02:35:43;;;;;;;7.13;6.40;;;;;;;14.56;100.00;99307.16;10337469;28;20284;-76
2021/08/11 02:41:10;;;;;;;7.87;5.87;;;;;;;14.43;100.00;99286.78;10334435;28;20225;-75
2021/08/11 02:46:33;;;;;;;6.33;5.73;;;;;;;14.47;100.00;99322.72;10336476;28;20185;-77
2021/08/11 02:51:52;;;;;;;10.57;7.20;;;;;;;14.36;100.00;99342.25;10335340;28;20209;-75
2021/08/11 02:57:12;;;;;;;6.30;5.70;;;;;;;14.14;100.00;99342.97;10335299;28;20539;-76
2021/08/11 03:02:32;;;;;;;8.90;6.67;;;;;;;14.10;100.00;99344.97;10334930;28;20177;-76
2021/08/11 03:07:51;;;;;;;6.63;5.93;;;;;;;14.09;100.00;99332.34;10336007;28;20201;-76
2021/08/11 03:13:13;;;;;;;9.83;6.40;;;;;;;14.08;100.00;99336.31;10333254;28;20644;-76
2021/08/11 03:18:33;;;;;;;8.27;6.23;;;;;;;14.14;100.00;99342.97;10335748;28;20182;-76
2021/08/11 03:23:52;;;;;;;8.03;6.70;;;;;;;14.09;100.00;99337.88;10334192;28;20616;-76
2021/08/11 03:29:11;;;;;;;7.33;6.63;;;;;;;14.08;100.00;99335.53;10334155;28;20213;-76
2021/08/11 03:34:30;;;;;;;7.03;5.50;;;;;;;13.96;100.00;99338.84;10333581;28;20209;-76
2021/08/11 03:39:48;;;;;;;7.40;6.60;;;;;;;13.85;100.00;99343.75;10333911;28;20165;-75
2021/08/11 03:45:08;;;;;;;9.63;6.87;;;;;;;13.83;100.00;99341.38;10333253;28;20193;-75
2021/08/11 03:50:27;;;;;;;7.40;6.70;;;;;;;13.81;100.00;99332.72;10334198;28;20559;-75
2021/08/11 03:55:46;;;;;;;7.77;6.90;;;;;;;13.85;100.00;99350.06;10333108;28;20554;-76
2021/08/11 04:01:06;;;;;;;8.70;6.50;;;;;;;13.76;100.00;99344.25;10333274;28;20185;-76
2021/08/11 04:06:25;;;;;;;8.40;6.63;;;;;;;13.73;100.00;99358.88;10333106;28;20182;-76
2021/08/11 04:11:45;;;;;;;8.97;6.70;;;;;;;13.76;100.00;99362.81;10331816;28;20659;-76
2021/08/11 04:17:04;;;;;;;14.83;6.87;;;;;;;13.87;100.00;99367.03;10333953;28;20189;-75
2021/08/11 04:22:23;;;;;;;8.57;7.37;;;;;;;13.73;100.00;99369.16;10332633;28;20173;-76
2021/08/11 04:27:42;;;;;;;12.13;6.67;;;;;;;13.69;100.00;99368.44;10332384;28;20169;-75
2021/08/11 04:33:02;;;;;;;8.03;6.57;;;;;;;13.80;100.00;99374.63;10333234;28;20192;-76
2021/08/11 04:38:21;;;;;;;11.53;6.90;;;;;;;13.76;100.00;99374.66;10332420;28;20189;-76
2021/08/11 04:43:40;;;;;;;9.03;6.53;;;;;;;13.89;100.00;99372.13;10332433;28;20593;-77
2021/08/11 04:48:59;;;;;;;10.93;7.60;;;;;;;13.95;100.00;99376.81;10338817;28;20229;-76
2021/08/11 04:54:18;;;;;;;8.00;7.20;;;;;;;14.01;100.00;99382.66;10339093;28;20181;-76
2021/08/11 04:59:37;;;;;;;10.90;7.53;;;;;;;14.00;100.00;99381.88;10340174;28;20256;-76
2021/08/11 05:04:56;;;;;;;8.93;7.60;;;;;;;14.06;100.00;99385.72;10340942;28;20245;-76
2021/08/11 05:10:16;;;;;;;9.60;6.37;;;;;;;14.21;100.00;99384.41;10339040;28;20660;-77
2021/08/11 05:15:35;;;;;;;9.20;7.33;;;;;;;14.41;100.00;99393.59;10339008;28;20656;-77
2021/08/11 05:20:54;;;;;;;12.20;7.20;;;;;;;14.64;100.00;99401.94;10340122;28;20178;-76
2021/08/11 05:26:13;;;;;;;11.93;7.40;;;;;;;14.90;100.00;99399.16;10337868;28;20175;-77
2021/08/11 05:31:33;;;;;;;10.27;6.67;;;;;;;15.23;100.00;99401.81;10339207;28;20292;-78
2021/08/11 05:36:52;;;;;;;7.97;6.37;;;;;;;15.55;100.00;99406.75;10319915;28;20636;-76
2021/08/11 05:42:11;;;;;;;8.50;6.87;;;;;;;15.84;100.00;99403.03;10312993;28;20230;-77
2021/08/11 05:47:30;;;;;;;15.40;6.83;;;;;;;16.13;100.00;99415.13;10295791;28;20174;-77
2021/08/11 05:52:49;;;;;;;6.70;6.10;;;;;;;16.37;100.00;99414.63;10311302;28;20186;-76
2021/08/11 05:58:11;;;;;;;8.00;7.20;;;;;;;16.69;100.00;99414.69;10314252;28;20217;-77
2021/08/11 06:03:30;;;;;;;9.60;6.50;;;;;;;16.87;100.00;99421.44;10335491;28;20260;-78
2021/08/11 06:08:49;;;;;;;11.03;8.17;;;;;;;17.12;100.00;99421.59;10334672;28;20208;-77
2021/08/11 06:14:08;;;;;;;9.07;7.77;;;;;;;17.39;100.00;99429.72;10335023;28;20182;-77
2021/08/11 06:19:27;;;;;;;8.97;7.80;;;;;;;17.69;99.47;99427.28;10335807;28;20185;-76
2021/08/11 06:24:46;;;;;;;11.03;7.77;;;;;;;18.00;97.54;99432.00;10333958;28;20181;-76
2021/08/11 06:30:06;;;;;;;9.90;7.00;;;;;;;18.52;98.47;99424.91;10335116;28;20208;-77
2021/08/11 06:35:26;;;;;;;11.70;7.87;;;;;;;19.14;91.44;99415.03;10335464;28;20604;-76
2021/08/11 06:40:44;;;;;;;8.00;7.00;;;;;;;19.54;93.31;99409.25;10294465;28;1122378;-77
2021/08/11 06:46:04;;;;;;;7.57;6.77;;;;;;;20.10;87.90;99410.06;10337152;28;20193;-77
2021/08/11 06:51:23;;;;;;;8.93;6.50;;;;;;;20.39;86.97;99416.16;10335793;28;20200;-76
2021/08/11 06:56:42;;;;;;;8.40;6.97;;;;;;;20.86;84.22;99425.13;10335026;28;20177;-76
2021/08/11 07:02:01;;;;;;;7.70;6.63;;;;;;;21.26;79.42;99426.66;10335464;28;20189;-77
2021/08/11 07:07:19;;;;;;;6.30;5.70;;;;;;;21.74;79.78;99421.78;10334954;28;20182;-77
2021/08/11 07:12:38;;;;;;;6.77;6.17;;;;;;;21.67;78.26;99426.13;10333966;28;20205;-77
2021/08/11 07:17:58;;;;;;;6.40;5.43;;;;;;;21.98;78.78;99421.97;10335855;28;20173;-77
2021/08/11 07:23:17;;;;;;;6.53;5.10;;;;;;;22.46;73.85;99423.81;10334887;28;20173;-77
2021/08/11 07:28:36;;;;;;;5.63;4.90;;;;;;;23.08;73.20;99428.44;10334060;28;20208;-77
2021/08/11 07:33:56;;;;;;;6.23;4.80;;;;;;;23.36;67.47;99425.78;10335242;28;20546;-77
2021/08/11 07:39:15;;;;;;;4.10;3.80;;;;;;;23.40;65.78;99420.00;10333913;28;20181;-77
2021/08/11 07:44:34;;;;;;;4.23;3.83;;;;;;;24.16;63.69;99420.84;10334292;28;20217;-77
2021/08/11 07:49:53;;;;;;;4.87;4.40;;;;;;;24.08;62.30;99422.47;10333343;28;20205;-76
2021/08/11 07:55:13;;;;;;;5.40;4.33;;;;;;;23.88;62.82;99413.91;10333083;28;20181;-76
2021/08/11 08:00:32;;;;;;;5.97;4.23;;;;;;;23.61;64.51;99422.50;10333984;28;20189;-77
2021/08/11 08:05:51;;;;;;;4.13;3.73;;;;;;;24.07;61.11;99412.50;10334092;28;20545;-76
2021/08/11 08:11:10;;;;;;;4.60;4.20;;;;;;;25.01;62.38;99407.28;10331341;28;20605;-77
2021/08/11 08:16:29;;;;;;;4.27;3.90;;;;;;;25.88;56.26;99411.41;10333898;28;20177;-77
2021/08/11 08:21:48;;;;;;;3.40;3.10;;;;;;;25.30;56.41;99422.09;10333708;28;20534;-77
2021/08/11 08:27:07;;;;;;;4.53;3.30;;;;;;;26.06;53.62;99416.72;10330870;28;20185;-77
2021/08/11 08:32:27;;;;;;;5.07;3.77;;;;;;;26.47;55.06;99414.63;10332854;28;20699;-76
2021/08/11 08:37:47;;;;;;;3.20;2.90;;;;;;;26.07;50.75;99423.16;10332137;28;20181;-77
2021/08/11 08:43:07;;;;;;;4.30;3.23;;;;;;;25.88;51.39;99439.59;10331356;28;20221;-77
2021/08/11 08:48:26;;;;;;;2.77;2.57;;;;;;;26.74;50.77;99432.56;10333135;28;20204;-76
2021/08/11 08:53:46;;;;;;;4.40;3.30;;;;;;;27.11;51.40;99432.66;10331817;28;20169;-76
2021/08/11 08:59:06;;;;;;;2.90;2.70;;;;;;;26.25;50.93;99428.47;10332730;28;20182;-77
2021/08/11 09:04:25;;;;;;;3.20;2.80;;;;;;;27.24;50.08;99430.94;10331836;28;20185;-77
2021/08/11 09:09:45;;;;;;;2.93;2.73;;;;;;;27.08;48.69;99433.66;10330392;28;20220;-77
2021/08/11 09:15:23;;;;;;;3.23;2.60;;;;;;;27.47;47.10;99426.97;10332589;28;20170;-76
2021/08/11 09:20:48;;;;;;;3.77;3.47;;;;;;;27.15;47.20;99436.78;10332642;28;20185;-76
2021/08/11 09:26:10;;;;;;;2.90;2.70;;;;;;;27.87;46.55;99438.00;10331261;28;20173;-76
2021/08/11 09:31:31;;;;;;;3.67;2.80;;;;;;;29.07;44.30;99429.84;10332073;28;20330;-77
2021/08/11 09:36:51;;;;;;;3.23;2.83;;;;;;;28.71;42.87;99439.31;10339722;28;20185;-77
2021/08/11 09:42:10;;;;;;;3.30;3.00;;;;;;;28.13;44.60;99439.41;10337931;28;20225;-76
2021/08/11 09:47:29;;;;;;;3.50;2.60;;;;;;;28.49;46.31;99433.63;10339438;28;20177;-77
2021/08/11 09:52:51;;;;;;;2.83;2.63;;;;;;;27.39;45.79;99442.09;10339325;28;20182;-76
2021/08/11 09:58:19;;;;;;;2.67;2.57;;;;;;;26.64;48.87;99442.50;10337422;28;20185;-76
2021/08/11 10:04:07;;;;;;;2.70;2.50;;;;;;;27.29;48.33;99443.56;10337786;28;20253;-77
2021/08/11 10:09:26;;;;;;;3.20;3.00;;;;;;;27.62;47.32;99448.19;10337061;28;20209;-77
2021/08/11 10:14:45;;;;;;;2.50;2.30;;;;;;;28.72;45.99;99446.53;10338261;28;20624;-76
2021/08/11 10:20:06;;;;;;;2.40;2.20;;;;;;;28.96;43.25;99435.50;10338157;28;20186;-77
2021/08/11 10:25:25;;;;;;;3.10;2.57;;;;;;;28.82;41.21;99432.91;10336675;28;20530;-76
2021/08/11 10:30:45;;;;;;;2.93;2.50;;;;;;;28.29;42.75;99433.06;10336762;28;20217;-76
2021/08/11 10:36:04;;;;;;;2.63;1.93;;;;;;;26.52;45.03;99436.47;10337459;28;20635;-75
2021/08/11 10:41:32;;;;;;;2.33;2.13;;;;;;;27.46;44.34;99431.13;10335348;28;20296;-76
2021/08/11 10:46:59;;;;;;;2.90;2.70;;;;;;;27.28;45.31;99439.97;10335815;28;20174;-76
2021/08/11 10:52:19;;;;;;;2.43;2.20;;;;;;;27.69;44.33;99424.31;10335268;28;20282;-76
2021/08/11 10:57:38;;;;;;;2.73;2.53;;;;;;;28.82;42.30;99415.91;10334241;28;20185;-77
2021/08/11 11:02:59;;;;;;;2.80;2.20;;;;;;;30.46;40.26;99423.97;10336364;28;20533;-77
2021/08/11 11:08:23;;;;;;;2.80;2.50;;;;;;;30.69;37.61;99417.66;10336230;28;20209;-78
2021/08/11 11:13:42;;;;;;;2.47;2.30;;;;;;;28.09;43.04;99426.81;10334972;28;20173;-78
2021/08/11 11:19:06;;;;;;;3.30;2.30;;;;;;;29.83;41.36;99405.44;10335829;28;20213;-79
2021/08/11 11:24:50;;;;;;;2.40;2.20;;;;;;;30.93;38.13;99415.63;10334349;28;20181;-78
2021/08/11 11:30:25;;;;;;;3.23;2.80;;;;;;;31.22;37.96;99420.56;10333641;28;20248;-78
2021/08/11 11:35:44;;;;;;;3.10;2.90;;;;;;;30.39;39.09;99405.44;10335212;28;20185;-79
2021/08/11 11:41:03;;;;;;;2.60;2.40;;;;;;;29.99;38.39;99402.56;10332464;28;20217;-78
2021/08/11 11:47:01;;;;;;;2.77;2.40;;;;;;;29.67;39.88;99395.72;10334784;28;20627;-79
2021/08/11 11:52:20;;;;;;;3.20;3.00;;;;;;;30.14;38.65;99405.84;10170531;29;20220;-79
2021/08/11 11:57:39;;;;;;;3.00;2.80;;;;;;;29.67;39.84;99394.94;10314788;28;20542;-78
2021/08/11 12:02:58;;;;;;;2.37;2.27;;;;;;;29.40;38.62;99399.41;10333293;28;20185;-78
2021/08/11 12:08:18;;;;;;;2.90;2.70;;;;;;;30.73;39.84;99395.41;10332986;28;20193;-78
2021/08/11 12:13:50;;;;;;;2.73;2.53;;;;;;;30.49;37.83;99386.81;10333971;28;20181;-79
2021/08/11 12:19:14;;;;;;;8.10;3.10;;;;;;;30.44;39.43;99390.44;10332838;28;20174;-78
2021/08/11 12:24:46;;;;;;;3.33;3.13;;;;;;;31.66;38.11;99389.59;10331354;28;20204;-78
2021/08/11 12:30:17;;;;;;;2.87;2.57;;;;;;;32.49;34.39;99383.59;10332781;28;20221;-78
2021/08/11 12:35:40;;;;;;;4.03;3.00;;;;;;;32.06;34.60;99385.78;10333317;28;20170;-78
2021/08/11 12:41:19;;;;;;;3.20;2.63;;;;;;;29.29;37.99;99378.78;10330915;28;20679;-78
2021/08/11 12:46:38;;;;;;;3.07;2.87;;;;;;;29.21;38.60;99372.84;10332739;28;20182;-79
2021/08/11 12:52:03;;;;;;;2.90;2.70;;;;;;;29.83;42.20;99377.06;10332580;28;20197;-78
2021/08/11 12:57:24;;;;;;;2.80;2.60;;;;;;;30.19;38.61;99377.44;10332011;28;20197;-78
2021/08/11 13:02:43;;;;;;;3.20;3.00;;;;;;;30.43;38.76;99369.00;10332039;28;20644;-78
2021/08/11 13:08:06;;;;;;;3.67;2.57;;;;;;;31.11;37.86;99366.69;10335237;28;20635;-78
2021/08/11 13:13:27;;;;;;;2.53;2.33;;;;;;;30.67;38.67;99363.44;10338546;28;20185;-78
2021/08/11 13:18:47;;;;;;;2.73;2.53;;;;;;;29.77;38.88;99364.97;10339335;28;20185;-78
2021/08/11 13:24:07;;;;;;;8.03;2.97;;;;;;;29.25;40.17;99364.09;10338241;28;20213;-78
2021/08/11 13:29:28;;;;;;;3.00;2.80;;;;;;;30.06;38.82;99348.09;10339913;28;20700;-79
2021/08/11 13:34:47;;;;;;;2.67;2.47;;;;;;;30.94;39.00;99348.97;10338885;28;20568;-78
2021/08/11 13:40:08;;;;;;;3.77;2.50;;;;;;;31.81;36.58;99347.28;10337499;28;20675;-78
2021/08/11 13:45:27;;;;;;;2.80;2.60;;;;;;;32.33;35.57;99344.72;10337971;28;20647;-79
2021/08/11 13:50:46;;;;;;;2.87;2.67;;;;;;;32.15;34.58;99344.75;10338210;28;20295;-78
2021/08/11 13:56:09;;;;;;;3.53;3.10;;;;;;;31.63;36.19;99350.06;10337581;28;20188;-78
2021/08/11 14:01:28;;;;;;;3.20;3.00;;;;;;;32.12;35.86;99337.28;10338511;28;20177;-79
2021/08/11 14:06:47;;;;;;;2.50;2.40;;;;;;;32.28;34.35;99328.50;10338372;28;20189;-78
2021/08/11 14:12:07;;;;;;;3.00;2.80;;;;;;;32.62;34.98;99335.25;10337284;28;20636;-78
2021/08/11 14:17:26;;;;;;;3.10;2.90;;;;;;;31.84;35.63;99342.56;10330956;28;20186;-78
2021/08/11 14:22:44;;;;;;;3.30;2.60;;;;;;;30.15;39.47;99345.69;10302352;28;20276;-77
2021/08/11 14:28:04;;;;;;;2.73;2.60;;;;;;;29.43;38.75;99347.34;10314856;28;20632;-77
2021/08/11 14:33:23;;;;;;;4.60;3.40;;;;;;;29.55;39.86;99342.41;10316260;28;20209;-77
2021/08/11 14:38:42;;;;;;;3.40;3.07;;;;;;;30.66;39.51;99342.00;10324446;28;20660;-78
2021/08/11 14:44:01;;;;;;;3.40;3.13;;;;;;;31.15;38.53;99338.69;10310036;28;20255;-78
2021/08/11 14:49:19;;;;;;;4.90;3.10;;;;;;;31.36;37.05;99350.38;10328630;28;20182;-78
2021/08/11 14:54:38;;;;;;;4.43;3.00;;;;;;;30.47;37.09;99338.28;10310829;28;20189;-78
2021/08/11 14:59:57;;;;;;;3.30;3.10;;;;;;;30.14;36.72;99340.56;10331338;28;20217;-78
2021/08/11 15:05:16;;;;;;;4.13;3.80;;;;;;;29.85;39.63;99341.19;10335338;28;20532;-78
2021/08/11 15:10:35;;;;;;;4.03;3.10;;;;;;;29.73;39.23;99333.25;10334944;28;20244;-78
2021/08/11 15:15:54;;;;;;;5.17;3.60;;;;;;;29.35;40.21;99340.63;10335695;28;20190;-77
2021/08/11 15:21:14;;;;;;;4.00;3.37;;;;;;;30.59;37.97;99334.06;10335427;28;20217;-78
2021/08/11 15:26:33;;;;;;;18.10;7.73;;;;;;;30.37;37.52;99334.19;10334259;28;20181;-77
2021/08/11 15:31:52;;;;;;;14.13;6.53;;;;;;;29.75;38.02;99342.03;10333672;28;20205;-78
2021/08/11 15:37:11;;;;;;;3.50;3.20;;;;;;;28.96;39.47;99342.00;10335132;28;20656;-77
2021/08/11 15:42:29;;;;;;;64.63;18.63;;;;;;;28.61;43.10;99336.06;10333055;28;20306;-77
2021/08/11 15:47:48;;;;;;;7.10;4.63;;;;;;;29.55;41.78;99334.66;10334780;28;20213;-78
2021/08/11 15:53:07;;;;;;;4.27;3.80;;;;;;;30.08;37.29;99328.47;10333591;28;20177;-78
2021/08/11 15:58:26;;;;;;;8.70;3.07;;;;;;;30.72;38.75;99337.03;10333119;28;20197;-78
2021/08/11 16:03:45;;;;;;;4.13;3.83;;;;;;;32.05;36.51;99330.13;10333970;28;20544;-77
2021/08/11 16:09:04;;;;;;;10.13;6.60;;;;;;;31.82;34.38;99330.94;10332889;28;20189;-77
2021/08/11 16:14:23;;;;;;;4.10;3.80;;;;;;;31.84;35.68;99348.25;10332047;28;20696;-77
2021/08/11 16:19:42;;;;;;;4.70;3.87;;;;;;;32.41;35.54;99339.94;10333632;28;20670;-78
2021/08/11 16:25:02;;;;;;;5.90;4.37;;;;;;;32.55;32.57;99330.16;10332485;28;20603;-78
2021/08/11 16:30:21;;;;;;;5.00;4.07;;;;;;;31.74;35.34;99332.88;10333511;28;20251;-79
2021/08/11 16:35:40;;;;;;;5.33;4.30;;;;;;;31.19;35.01;99330.66;10333475;28;20536;-78
2021/08/11 16:41:00;;;;;;;4.27;3.97;;;;;;;30.98;35.98;99332.38;10332084;28;20656;-78
2021/08/11 16:46:19;;;;;;;4.13;3.50;;;;;;;30.23;36.95;99329.66;10340588;28;20193;-79
2021/08/11 16:51:38;;;;;;;10.80;3.97;;;;;;;29.43;38.89;99344.50;10340552;28;20181;-78
2021/08/11 16:56:57;;;;;;;5.47;4.40;;;;;;;28.92;39.50;99340.72;10339001;28;20181;-78
2021/08/11 17:02:17;;;;;;;99.03;73.10;;;;;;;28.50;39.85;99344.59;10340522;28;20212;-77
2021/08/11 17:07:37;;;;;;;23.13;18.90;;;;;;;28.09;41.76;99342.69;10341099;28;20256;-77
2021/08/11 17:12:56;;;;;;;7.63;6.93;;;;;;;27.61;43.26;99335.59;10338154;28;20177;-78
2021/08/11 17:18:16;;;;;;;4.63;3.93;;;;;;;27.46;43.92;99332.19;10339657;28;20185;-78
2021/08/11 17:23:36;;;;;;;14.63;13.13;;;;;;;27.33;44.67;99325.44;10338651;28;20562;-77
2021/08/11 17:28:57;;;;;;;12.20;11.00;;;;;;;27.14;45.56;99333.53;10339125;28;20197;-77
2021/08/11 17:34:16;;;;;;;8.30;6.60;;;;;;;27.40;46.05;99328.53;10339024;28;20181;-79
2021/08/11 17:39:35;;;;;;;5.00;4.50;;;;;;;27.64;45.03;99329.72;10336941;28;20205;-78
2021/08/11 17:44:54;;;;;;;4.77;4.37;;;;;;;28.75;42.75;99325.78;10338863;28;20221;-78
2021/08/11 17:50:13;;;;;;;10.37;8.40;;;;;;;27.79;45.62;99321.78;10324659;28;20174;-77
2021/08/11 17:55:32;;;;;;;12.50;8.30;;;;;;;26.76;48.54;99338.94;10326580;28;20178;-79
2021/08/11 18:00:52;;;;;;;13.93;9.50;;;;;;;26.08;50.92;99340.84;10337908;28;20731;-78
2021/08/11 18:06:11;;;;;;;22.20;10.57;;;;;;;25.61;51.37;99334.16;10337868;28;20205;-77
2021/08/11 18:11:33;;;;;;;12.10;6.80;;;;;;;25.25;54.36;99337.50;10337420;28;20182;-78
2021/08/11 18:16:52;;;;;;;8.00;7.30;;;;;;;24.88;54.75;99344.91;10337148;28;20201;-79
2021/08/11 18:22:11;;;;;;;30.33;23.70;;;;;;;24.67;57.21;99348.16;10335956;28;20622;-78
2021/08/11 18:27:32;;;;;;;18.83;12.70;;;;;;;24.29;58.17;99351.06;10334731;28;20209;-77
2021/08/11 18:32:52;;;;;;;11.77;8.10;;;;;;;24.05;59.38;99358.03;10337334;28;20216;-78
2021/08/11 18:38:11;;;;;;;8.93;4.47;;;;;;;23.81;61.29;99363.72;10303269;28;20189;-76
2021/08/11 18:43:30;;;;;;;7.47;6.20;;;;;;;23.66;63.64;99373.31;10334190;28;20233;-79
2021/08/11 18:48:48;;;;;;;9.20;6.67;;;;;;;23.48;64.24;99379.88;10320443;28;20177;-77
2021/08/11 18:54:08;;;;;;;15.83;6.13;;;;;;;23.34;64.10;99391.78;10323206;28;20177;-78
2021/08/11 18:59:27;;;;;;;24.67;5.60;;;;;;;23.12;65.20;99392.56;10335164;28;20208;-78
2021/08/11 19:04:45;;;;;;;16.03;5.30;;;;;;;22.82;66.31;99399.22;10334633;28;20177;-78
2021/08/11 19:10:05;;;;;;;12.90;4.80;;;;;;;22.50;67.80;99420.34;10334650;28;20217;-77
2021/08/11 19:15:24;;;;;;;18.17;12.40;;;;;;;22.40;71.90;99418.03;10334097;28;20276;-77
2021/08/11 19:20:46;;;;;;;9.13;5.50;;;;;;;22.08;74.78;99415.13;10334538;28;20201;-79
2021/08/11 19:26:05;;;;;;;12.70;4.93;;;;;;;21.77;75.07;99423.66;10334277;28;20177;-78
2021/08/11 19:31:24;;;;;;;6.40;5.57;;;;;;;21.73;74.50;99425.81;10334253;28;20209;-77
2021/08/11 19:36:43;;;;;;;6.27;5.70;;;;;;;21.64;74.96;99424.28;10335087;28;20189;-77
2021/08/11 19:42:02;;;;;;;11.30;6.10;;;;;;;21.50;76.80;99427.63;10333203;28;20229;-76
2021/08/11 19:47:21;;;;;;;5.10;4.60;;;;;;;21.41;74.83;99431.22;10333839;28;20184;-77
2021/08/11 19:52:40;;;;;;;6.87;4.00;;;;;;;21.37;75.14;99430.56;10334730;28;20173;-76
2021/08/11 19:57:59;;;;;;;4.33;4.00;;;;;;;21.17;75.13;99432.22;10333603;28;20209;-77
2021/08/11 20:03:19;;;;;;;7.40;4.63;;;;;;;20.98;76.26;99442.56;10332951;28;20635;-76
2021/08/11 20:08:38;;;;;;;4.90;4.10;;;;;;;20.74;78.49;99445.53;10332210;28;20643;-78
2021/08/11 20:13:57;;;;;;;5.83;4.13;;;;;;;20.57;78.39;99430.22;10332977;28;20192;-77
2021/08/11 20:19:16;;;;;;;8.37;4.87;;;;;;;20.43;80.23;99441.94;10333613;28;20288;-77
2021/08/11 20:24:34;;;;;;;6.93;5.20;;;;;;;20.35;79.34;99440.66;10331900;28;20684;-77
2021/08/11 20:29:53;;;;;;;8.63;4.47;;;;;;;20.10;79.68;99437.97;10327100;28;20209;-76
2021/08/11 20:35:13;;;;;;;5.30;4.90;;;;;;;20.10;80.79;99443.56;10305822;28;20633;-77
2021/08/11 20:40:32;;;;;;;12.70;6.00;;;;;;;19.96;80.27;99454.47;10307408;28;20241;-76
2021/08/11 20:45:51;;;;;;;6.23;4.80;;;;;;;19.81;80.55;99453.38;10333429;28;20174;-76
2021/08/11 20:51:10;;;;;;;10.90;5.13;;;;;;;19.77;79.27;99458.31;10332207;28;20227;-77
2021/08/11 20:56:31;;;;;;;8.30;5.10;;;;;;;19.72;81.88;99464.47;10330358;28;20222;-77
2021/08/11 21:01:50;;;;;;;5.30;4.00;;;;;;;19.56;83.87;99454.25;10331328;28;20208;-77
2021/08/11 21:07:09;;;;;;;10.33;5.20;;;;;;;19.33;84.74;99465.00;10332028;28;20257;-76
2021/08/11 21:12:28;;;;;;;5.37;4.50;;;;;;;19.17;86.71;99472.72;10331613;28;20209;-76
2021/08/11 21:17:50;;;;;;;7.10;5.67;;;;;;;19.00;88.38;99466.44;10331824;28;20181;-77
2021/08/11 21:23:08;;;;;;;6.90;4.60;;;;;;;18.87;88.78;99476.81;10331866;28;20209;-77
2021/08/11 21:28:27;;;;;;;6.70;6.03;;;;;;;18.76;89.14;99467.97;10332461;28;20209;-76
2021/08/11 21:33:46;;;;;;;7.50;6.40;;;;;;;18.57;90.91;99466.19;10339161;28;20177;-77
2021/08/11 21:39:05;;;;;;;6.23;5.73;;;;;;;18.56;90.11;99475.75;10338517;28;20652;-76
2021/08/11 21:44:24;;;;;;;7.13;6.10;;;;;;;18.43;89.09;99474.16;10338134;28;20296;-76
2021/08/11 21:49:43;;;;;;;12.87;6.90;;;;;;;18.32;90.77;99482.03;10339495;28;20645;-76
2021/08/11 21:55:02;;;;;;;6.60;5.87;;;;;;;18.32;92.36;99482.03;10337965;28;20197;-76
2021/08/11 22:00:22;;;;;;;7.30;5.73;;;;;;;18.18;92.79;99489.97;10338730;28;20213;-76
2021/08/11 22:05:40;;;;;;;9.20;7.50;;;;;;;18.00;94.00;99495.25;10338915;28;20170;-76
2021/08/11 22:11:00;;;;;;;7.60;5.70;;;;;;;17.78;95.63;99494.25;10337287;28;20169;-77
2021/08/11 22:16:19;;;;;;;6.83;6.00;;;;;;;17.70;96.71;99495.66;10337576;28;20174;-76
2021/08/11 22:21:38;;;;;;;7.37;5.40;;;;;;;17.59;97.25;99495.94;10336853;28;20716;-76
2021/08/11 22:26:58;;;;;;;10.00;5.57;;;;;;;17.58;94.86;99495.56;10335671;28;20633;-77
2021/08/11 22:32:16;;;;;;;6.63;5.77;;;;;;;17.56;93.45;99498.03;10337882;28;20189;-76
2021/08/11 22:37:36;;;;;;;18.87;6.10;;;;;;;17.65;95.90;99491.38;10337641;28;20169;-76
2021/08/11 22:42:55;;;;;;;11.33;4.93;;;;;;;17.58;97.30;99497.13;10334560;28;20233;-78
2021/08/11 22:48:14;;;;;;;9.80;5.73;;;;;;;17.33;98.96;99501.75;10337320;28;20170;-77
2021/08/11 22:53:33;;;;;;;9.60;5.77;;;;;;;17.21;100.00;99507.97;10335997;28;20185;-78
2021/08/11 22:58:52;;;;;;;12.70;6.23;;;;;;;17.03;100.00;99506.81;10336439;28;20581;-77
2021/08/11 23:04:13;;;;;;;6.53;5.57;;;;;;;16.92;100.00;99518.19;10336830;28;20677;-76
2021/08/11 23:09:34;;;;;;;9.10;6.50;;;;;;;16.89;100.00;99504.38;10334163;28;20173;-79
2021/08/11 23:14:53;;;;;;;6.23;5.20;;;;;;;16.80;100.00;99504.94;10336107;28;20174;-76
2021/08/11 23:20:12;;;;;;;11.40;5.60;;;;;;;16.80;100.00;99516.06;10335886;28;20232;-76
2021/08/11 23:25:31;;;;;;;11.40;6.23;;;;;;;16.87;100.00;99506.78;10332754;28;20205;-75
2021/08/11 23:30:50;;;;;;;18.27;5.93;;;;;;;16.66;100.00;99510.03;10335538;28;20193;-77
2021/08/11 23:36:09;;;;;;;7.43;5.73;;;;;;;16.50;100.00;99504.44;10334342;28;20177;-78
2021/08/11 23:41:28;;;;;;;5.93;4.87;;;;;;;16.45;100.00;99504.13;10332155;28;20229;-77
2021/08/11 23:46:47;;;;;;;7.77;5.40;;;;;;;16.32;100.00;99512.31;10333896;28;20182;-77
2021/08/11 23:52:06;;;;;;;10.80;6.00;;;;;;;16.30;100.00;99516.75;10333443;28;20529;-77
2021/08/11 23:57:25;;;;;;;11.40;5.50;;;;;;;16.37;100.00;99508.28;10331340;28;20189;-78
